Latest Weather Observations for Adelaide Airport

IDS60901

Issued at 4:01 pm CST Tuesday 21 April 2015 (issued every 10 minutes, with the page automatically refreshed every 10 minutes)

About weather observations | Map of Adelaide area stations | Latest observations for Adelaide area | Other Formats
Station Details ID: 023034 Name: ADELAIDE AIRPORT Lat: -34.95 Lon: 138.52 Height: 2.0 m
Data from the previous 72 hours. | See also: Recent months at Adelaide Airport
Date/Time
CST
Tmp

°C
App
Tmp
°C
Dew
Point
°C
Rel
Hum
%
Delta-T

°C
Wind Press
QNH
hPa
Press
MSL
hPa
Rain
since
9 am
mm
Dir
 
Spd
km/h
Gust
km/h
Spd
kts
Gust
kts
21/03:30pm 18.0 12.3 5.0 42 6.2 SSE 24 32 13 17 1029.1 - 0.0
21/03:00pm 18.0 12.6 4.4 40 6.4 SSE 22 32 12 17 1029.3 1029.3 0.0
21/02:30pm 18.1 12.3 4.6 41 6.4 SE 24 33 13 18 1029.5 - 0.0
21/02:00pm 17.9 12.0 4.0 39 6.5 SSE 24 30 13 16 1029.9 - 0.0
21/01:30pm 17.5 11.9 3.7 40 6.4 SE 22 33 12 18 1030.2 - 0.0
21/01:00pm 17.5 12.6 4.2 41 6.3 ESE 19 26 10 14 1030.9 - 0.0
21/12:30pm 17.2 12.2 4.4 42 6.0 ESE 20 32 11 17 1031.7 - 0.0
21/12:00pm 16.8 12.0 4.4 43 5.8 SE 19 32 10 17 1032.4 1032.4 0.0
21/11:30am 17.1 11.9 5.3 45 5.7 SE 22 33 12 18 1033.2 - 0.0
21/11:00am 16.2 11.7 4.0 44 5.7 ESE 17 30 9 16 1033.7 - 0.0
21/10:30am 15.9 10.5 4.5 46 5.3 ESE 22 32 12 17 1034.0 - 0.0
21/10:00am 15.8 9.6 4.3 46 5.4 ESE 26 37 14 20 1034.2 - 0.0
21/09:30am 15.2 9.5 4.9 50 4.8 SE 24 30 13 16 1034.5 - 0.0
21/09:00am 14.1 9.6 6.3 59 3.7 ESE 19 26 10 14 1034.7 1034.7 0.0
21/08:00am 11.7 9.8 6.6 71 2.4 WSW 6 9 3 5 1034.7 - 0.0
21/07:30am 10.5 8.0 6.4 76 1.9 WSW 9 11 5 6 1034.6 - 0.0
21/07:00am 9.0 7.7 5.9 81 1.4 SSW 2 9 1 5 1034.4 - 0.0
21/06:30am 9.5 6.4 5.7 77 1.7 SSE 11 13 6 7 1034.3 - 0.0
21/05:30am 9.2 5.7 5.6 78 1.6 SSE 13 15 7 8 1034.0 - 0.0
21/05:00am 8.8 5.2 5.2 78 1.6 SSE 13 15 7 8 1034.2 - 0.0
21/04:30am 9.1 5.8 4.8 74 1.9 SE 11 13 6 7 1034.1 - 0.0
21/03:30am 9.5 6.2 4.5 71 2.2 SE 11 15 6 8 1034.1 - 0.0
21/03:00am 10.1 6.4 4.4 68 2.5 SE 13 17 7 9 1034.2 1034.2 0.0
21/02:30am 10.7 6.7 4.9 67 2.6 ESE 15 20 8 11 1034.6 - 0.0
21/02:00am 11.1 7.1 5.1 66 2.7 ESE 15 19 8 10 1034.7 - 0.0
21/01:30am 11.0 7.1 5.3 68 2.6 SE 15 20 8 11 1034.8 - 0.0
21/01:00am 11.5 7.5 5.1 65 2.9 SSE 15 20 8 11 1034.9 - 0.0
21/12:30am 11.8 7.8 4.7 62 3.2 SE 15 24 8 13 1035.0 - 0.0
21/12:00am 11.8 7.1 5.2 64 3.0 SE 19 28 10 15 1035.2 1035.2 0.0
 
Date/Time
CST
Tmp

°C
App
Tmp
°C
Dew
Point
°C
Rel
Hum
%
Delta-T

°C
Wind Press
QNH
hPa
Press
MSL
hPa
Rain
since
9 am
mm
Dir
 
Spd
km/h
Gust
km/h
Spd
kts
Gust
kts
20/11:30pm 12.2 8.1 6.0 66 2.9 SE 17 26 9 14 1035.4 - 0.0
20/11:00pm 12.0 8.8 6.9 71 2.4 SSE 13 19 7 10 1035.5 - 0.0
20/10:30pm 11.4 9.1 7.4 76 1.9 S 9 11 5 6 1035.8 - 0.0
20/10:00pm 11.7 9.0 7.3 74 2.1 SSW 11 13 6 7 1036.0 - 0.0
20/09:30pm 11.7 9.0 7.5 75 2.0 SSW 11 13 6 7 1036.0 - 0.0
20/09:00pm 11.7 9.0 7.3 74 2.1 SSW 11 13 6 7 1036.0 1036.0 0.0
20/08:30pm 11.8 9.1 7.2 73 2.2 SW 11 13 6 7 1036.0 - 0.0
20/08:00pm 12.2 9.8 6.9 70 2.5 SSW 9 11 5 6 1035.9 - 0.0
20/07:30pm 12.4 9.7 7.2 70 2.5 S 11 15 6 8 1036.1 - 0.0
20/07:00pm 12.9 8.9 6.8 66 2.9 S 17 20 9 11 1036.0 - 0.0
20/06:30pm 13.3 9.6 6.3 62 3.3 S 15 20 8 11 1036.0 - 0.0
20/05:30pm 14.3 8.5 4.2 50 4.6 SSE 24 37 13 20 1035.5 - 0.0
20/05:00pm 15.1 7.9 3.0 44 5.5 SSE 30 39 16 21 1035.1 - 0.0
20/04:30pm 15.2 8.5 3.4 45 5.4 SSE 28 37 15 20 1035.2 - 0.0
20/04:00pm 16.0 10.3 2.8 41 6.0 SSE 22 33 12 18 1035.2 - 0.0
20/03:30pm 16.4 11.0 2.5 39 6.3 SSE 20 28 11 15 1035.3 - 0.0
20/03:00pm 16.5 11.1 2.3 38 6.3 SE 20 30 11 16 1035.3 1035.3 0.0
20/02:30pm 16.6 11.0 1.5 36 6.7 SE 20 26 11 14 1035.4 - 0.0
20/02:00pm 16.4 10.0 1.2 35 6.7 ESE 24 33 13 18 1035.4 - 0.0
20/01:30pm 16.1 10.5 1.0 36 6.6 ESE 20 30 11 16 1035.7 - 0.0
20/01:00pm 16.4 10.4 0.8 34 6.8 SE 22 35 12 19 1036.3 - 0.0
20/12:30pm 16.0 9.3 -1.0 31 7.1 SE 24 35 13 19 1036.7 - 0.0
20/12:00pm 16.2 10.3 -1.0 31 7.1 SE 20 33 11 18 1037.4 1037.4 0.0
20/11:30am 15.5 9.2 -0.8 33 6.8 SE 22 32 12 17 1038.0 - 0.0
20/11:00am 15.6 9.8 -0.2 34 6.7 SE 20 30 11 16 1038.4 - 0.0
20/10:30am 14.4 7.6 -2.0 32 6.6 SE 24 32 13 17 1038.7 - 0.0
20/10:00am 14.0 8.2 -0.4 37 6.0 ESE 20 30 11 16 1038.9 - 0.0
20/09:30am 13.3 8.0 -0.5 38 5.7 ESE 17 22 9 12 1039.0 - 0.0
20/09:00am 12.6 8.6 0.4 43 5.0 ESE 11 24 6 13 1039.2 1039.2 0.0
20/08:30am 11.7 8.5 1.0 48 4.5 SE 7 11 4 6 1039.3 - 0.0
20/08:00am 10.5 8.8 1.8 55 3.7 CALM 0 0 0 0 1039.1 - 0.0
20/07:30am 8.7 6.2 1.5 60 3.0 SE 4 11 2 6 1038.9 - 0.0
20/07:00am 8.2 4.2 0.3 57 3.1 S 11 13 6 7 1038.6 - 0.0
20/06:30am 7.6 3.6 0.7 61 2.7 S 11 13 6 7 1038.4 - 0.0
20/06:00am 7.0 3.1 0.9 65 2.4 SSE 11 15 6 8 1038.3 1038.3 0.0
20/05:30am 8.1 3.7 0.1 57 3.2 SSE 13 17 7 9 1038.1 - 0.0
20/05:00am 8.1 4.1 0.5 58 3.0 SSE 11 13 6 7 1037.9 - 0.0
20/04:30am 8.1 3.8 0.8 60 2.9 SE 13 15 7 8 1037.8 - 0.0
20/04:00am 7.8 3.6 1.6 65 2.5 SE 13 15 7 8 1037.6 - 0.0
20/03:30am 8.0 3.8 1.5 63 2.6 ESE 13 15 7 8 1037.5 - 0.0
20/03:00am 8.2 4.1 2.1 65 2.5 ESE 13 17 7 9 1037.5 1037.5 0.0
20/02:30am 8.7 3.8 1.9 62 2.8 ESE 17 22 9 12 1037.6 - 0.0
20/02:00am 8.6 4.1 2.3 64 2.6 ESE 15 17 8 9 1037.7 - 0.0
20/01:30am 9.4 5.3 2.2 61 3.0 ESE 13 15 7 8 1037.7 - 0.0
20/01:00am 9.4 4.6 2.7 63 2.8 ESE 17 20 9 11 1037.5 - 0.0
20/12:30am 8.5 4.3 3.6 71 2.1 ESE 15 19 8 10 1037.4 - 0.0
20/12:00am 8.4 4.6 4.0 74 1.9 ESE 13 17 7 9 1037.5 1037.5 0.0
 
Date/Time
CST
Tmp

°C
App
Tmp
°C
Dew
Point
°C
Rel
Hum
%
Delta-T

°C
Wind Press
QNH
hPa
Press
MSL
hPa
Rain
since
9 am
mm
Dir
 
Spd
km/h
Gust
km/h
Spd
kts
Gust
kts
19/11:30pm 9.0 6.1 4.7 74 1.9 E 9 13 5 7 1037.5 - 0.0
19/11:00pm 9.3 6.8 5.0 74 1.9 SE 7 9 4 5 1037.6 - 0.0
19/10:30pm 10.1 7.1 4.2 67 2.6 SSE 9 11 5 6 1037.5 - 0.0
19/10:00pm 10.2 7.2 4.0 65 2.7 SE 9 11 5 6 1037.4 - 0.0
19/09:30pm 10.4 7.8 4.0 64 2.8 SSE 7 9 4 5 1037.3 - 0.0
19/09:00pm 10.8 7.8 4.2 64 2.9 S 9 13 5 7 1037.0 1037.0 0.0
19/08:30pm 11.5 7.8 4.6 62 3.1 S 13 17 7 9 1036.6 - 0.0
19/08:00pm 11.6 7.9 4.7 62 3.1 SSE 13 19 7 10 1036.4 - 0.0
19/07:30pm 12.3 8.6 4.3 58 3.6 SSE 13 17 7 9 1036.1 - 0.0
19/07:00pm 12.5 8.7 4.0 56 3.8 SSE 13 15 7 8 1035.7 - 0.0
19/06:30pm 12.4 8.2 3.8 55 3.9 SSE 15 19 8 10 1035.4 - 0.0
19/06:00pm 13.2 7.9 3.2 50 4.4 SSE 20 28 11 15 1034.8 1034.8 0.0
19/05:30pm 14.0 7.0 4.0 51 4.6 SSE 30 39 16 21 1034.4 - 0.0
19/05:00pm 14.5 8.2 1.8 42 5.5 SSE 24 32 13 17 1034.1 - 0.0
19/04:30pm 15.3 9.4 1.4 39 6.1 SE 22 28 12 15 1033.9 - 0.0
19/04:00pm 15.8 9.7 2.5 40 6.0 S 24 33 13 18 1033.8 - 0.0
19/03:30pm 15.3 7.5 1.7 39 6.0 SSE 32 37 17 20 1033.4 - 0.0
19/03:00pm 15.3 7.6 2.1 41 5.8 S 32 39 17 21 1033.5 1033.5 0.0
19/02:30pm 15.6 9.5 2.5 41 5.9 SSE 24 33 13 18 1033.1 - 0.0
19/02:00pm 16.8 10.9 1.9 36 6.7 SSE 22 37 12 20 1032.8 - 0.0
19/01:30pm 16.7 11.5 2.7 39 6.4 SE 19 28 10 15 1032.8 - 0.0
19/01:00pm 15.3 9.6 4.7 49 5.0 SSE 24 30 13 16 1033.1 - 0.0
19/12:30pm 14.5 7.8 3.6 48 5.0 SSE 28 37 15 20 1033.4 - 0.0
19/12:00pm 15.6 8.9 3.7 45 5.4 SSE 28 35 15 19 1033.3 1033.3 0.0
19/11:30am 14.1 7.6 4.7 53 4.4 SE 28 37 15 20 1033.7 - 0.0
19/11:00am 15.5 11.0 6.1 53 4.5 ESE 19 26 10 14 1033.4 - 0.0
19/10:30am 13.8 6.5 4.3 52 4.4 SSE 32 43 17 23 1033.3 - 0.0
19/10:00am 15.2 9.5 2.9 43 5.5 SSE 22 32 12 17 1032.9 - 0.0
19/09:30am 14.5 10.1 5.0 53 4.4 S 17 26 9 14 1033.0 - 0.0
19/09:00am 13.9 10.0 5.3 56 4.0 SE 15 19 8 10 1032.7 1032.7 3.2
19/08:30am 12.9 9.7 5.0 58 3.6 SSE 11 15 6 8 1032.1 - 3.2
19/08:00am 11.9 8.7 5.1 63 3.1 S 11 15 6 8 1031.5 - 3.2
19/07:30am 9.5 8.7 6.7 83 1.3 CALM 0 0 0 0 1030.6 - 3.2
19/07:00am 8.1 7.0 5.2 82 1.3 CALM 0 0 0 0 1029.9 - 3.2
19/06:30am 9.9 8.9 5.5 74 2.0 CALM 0 0 0 0 1029.4 - 3.2
19/06:00am 9.6 7.3 5.9 78 1.7 S 7 9 4 5 1029.0 1029.0 3.2
19/05:30am 10.5 7.8 5.7 72 2.2 S 9 11 5 6 1028.5 - 3.2
19/05:00am 9.3 7.5 5.5 77 1.7 SSE 4 6 2 3 1027.9 - 3.2
19/04:30am 9.7 6.9 5.2 73 2.0 SSE 9 11 5 6 1027.4 - 3.2
19/04:00am 9.9 6.8 5.5 74 2.0 SSE 11 15 6 8 1027.1 - 3.2
19/03:30am 9.0 6.4 5.9 81 1.4 SSE 9 9 5 5 1026.7 - 3.2
19/03:00am 9.7 7.1 6.0 78 1.7 S 9 13 5 7 1026.4 1026.4 3.2
19/02:30am 9.2 6.5 5.7 79 1.6 SSE 9 11 5 6 1026.4 - 3.2
19/02:00am 9.6 7.5 6.6 81 1.4 SSE 7 9 4 5 1026.1 - 3.2
19/01:30am 9.5 7.0 6.7 83 1.3 ESE 9 11 5 6 1026.0 - 3.2
19/01:00am 10.5 8.0 6.4 76 1.9 SSE 9 13 5 7 1025.7 - 3.2
19/12:30am 11.2 8.0 6.7 74 2.1 SSE 13 15 7 8 1025.5 - 3.2
19/12:00am 11.7 8.6 7.1 73 2.2 S 13 17 7 9 1025.3 1025.3 3.2
 
Date/Time
CST
Tmp

°C
App
Tmp
°C
Dew
Point
°C
Rel
Hum
%
Delta-T

°C
Wind Press
QNH
hPa
Press
MSL
hPa
Rain
since
9 am
mm
Dir
 
Spd
km/h
Gust
km/h
Spd
kts
Gust
kts
18/11:30pm 11.6 9.2 7.2 74 2.1 SSE 9 11 5 6 1025.0 - 3.2
18/11:00pm 11.3 9.0 7.5 77 1.8 S 9 11 5 6 1024.8 - 3.2
18/10:30pm 11.7 9.1 7.8 77 1.9 S 11 13 6 7 1024.6 - 3.2
18/10:00pm 12.3 8.1 7.5 72 2.3 S 19 28 10 15 1024.3 - 3.2
18/09:30pm 13.1 8.9 8.2 72 2.4 S 20 30 11 16 1023.7 - 3.0
18/09:00pm 13.7 9.4 7.8 67 2.9 S 20 28 11 15 1023.2 1023.2 3.0
18/08:30pm 13.6 10.8 8.4 71 2.6 SSE 13 19 7 10 1022.5 - 3.0
18/08:00pm 13.7 10.5 8.5 71 2.6 SSE 15 22 8 12 1022.0 - 3.0
18/07:30pm 13.8 10.5 9.5 75 2.2 S 17 22 9 12 1021.4 - 3.0
18/07:00pm 13.8 11.5 10.3 79 1.8 S 13 15 7 8 1020.9 - 3.0
18/06:30pm 13.8 10.8 10.5 80 1.7 S 17 19 9 10 1020.1 - 3.0
18/06:00pm 13.9 10.8 11.6 86 1.2 S 19 26 10 14 1019.8 1019.8 3.0
18/05:30pm 13.9 11.0 12.2 89 0.9 S 19 28 10 15 1019.2 - 3.0
18/05:14pm 14.1 10.6 12.2 88 1.0 S 22 32 12 17 1018.9 - 3.0
18/05:00pm 14.0 9.1 12.5 91 0.8 SSW 30 44 16 24 1018.8 - 3.0
18/04:45pm 14.7 9.2 11.7 82 1.6 SSW 32 50 17 27 1018.4 - 2.8
18/04:30pm 14.8 9.2 11.4 80 1.8 S 32 46 17 25 1018.2 - 2.6
18/04:15pm 14.7 9.5 12.7 88 1.1 SSW 32 50 17 27 1017.8 - 2.6

Latest Capital City Observations: Canberra | Sydney | Melbourne | Brisbane | Adelaide | Perth | Hobart | Darwin

Other Formats:

Comma delimited format used in spreadsheet applications
http://www.bom.gov.au/fwo/IDS60901/IDS60901.94672.axf

JavaScript Object Notation format (JSON) in row-major order
http://www.bom.gov.au/fwo/IDS60901/IDS60901.94672.json